Time;durP1;ratioP1;P1;durP2;ratioP2;P2;SDS_P1;SDS_P2;PMS_P1;PMS_P2;Temp;Humidity;BMP_temperature;BMP_pressure;BME280_temperature;BME280_humidity;BME280_pressure;Samples;Min_cycle;Max_cycle;Signal;HPM_P1;HPM_P2
2023/09/18 00:17:52;;;;;;;11.85;10.65;;;23.40;92.30;;;;;;5033331;28;20151;-69
2023/09/18 00:20:20;;;;;;;11.55;10.40;;;23.20;94.10;;;;;;4994356;28;20101;-69
2023/09/18 00:22:47;;;;;;;12.40;10.70;;;23.50;92.80;;;;;;4996674;28;20129;-68
2023/09/18 00:25:15;;;;;;;11.43;10.23;;;23.60;94.00;;;;;;5017678;28;20125;-69
2023/09/18 00:27:42;;;;;;;11.15;10.05;;;21.40;92.30;;;;;;5008618;28;20057;-69
2023/09/18 00:30:11;;;;;;;11.80;10.65;;;23.50;94.10;;;;;;4995328;28;20041;-69
2023/09/18 00:36:18;;;;;;;13.32;11.73;;;23.60;92.30;;;;;;5021071;28;20036;-69
2023/09/18 00:38:46;;;;;;;11.00;10.00;;;23.30;94.00;;;;;;4982931;28;20124;-70
2023/09/18 00:41:13;;;;;;;13.25;11.95;;;23.30;93.80;;;;;;5013284;28;20049;-69
2023/09/18 00:43:39;;;;;;;11.50;10.27;;;23.70;92.70;;;;;;5002283;28;20037;-69
2023/09/18 00:46:08;;;;;;;13.10;11.82;;;;;;;;;;5016215;28;20042;-64
2023/09/18 00:48:33;;;;;;;11.90;10.68;;;23.20;91.70;;;;;;5015527;28;20387;-65
2023/09/18 00:50:59;;;;;;;11.27;10.07;;;23.60;94.10;;;;;;5027816;28;20056;-63
2023/09/18 00:53:25;;;;;;;11.50;10.40;;;23.90;94.20;;;;;;4961267;28;20101;-70
2023/09/18 00:55:53;;;;;;;11.73;10.57;;;23.30;92.10;;;;;;4995650;28;20522;-70
2023/09/18 00:58:19;;;;;;;12.20;10.93;;;23.60;92.70;;;;;;5012402;28;20045;-69
2023/09/18 01:00:46;;;;;;;11.32;10.13;;;23.30;94.00;;;;;;5017040;28;20052;-69
2023/09/18 01:03:12;;;;;;;10.65;9.63;;;23.30;94.00;;;;;;5004416;28;20041;-69
2023/09/18 01:05:41;;;;;;;11.02;9.98;;;23.40;93.70;;;;;;4995674;28;20692;-69
2023/09/18 01:08:07;;;;;;;11.02;9.95;;;23.40;93.70;;;;;;5019346;28;20054;-70
2023/09/18 01:10:36;;;;;;;11.75;10.52;;;22.90;92.20;;;;;;5015410;28;20042;-69
2023/09/18 01:13:15;;;;;;;11.15;10.05;;;23.30;93.60;;;;;;4996153;28;20052;-69
2023/09/18 01:15:49;;;;;;;11.07;9.98;;;23.40;92.70;;;;;;5014913;28;20068;-69
2023/09/18 01:18:16;;;;;;;11.70;10.50;;;23.30;93.80;;;;;;5011638;28;20535;-68
2023/09/18 01:20:47;;;;;;;11.82;10.63;;;23.30;92.50;;;;;;5030550;28;20041;-68
2023/09/18 01:23:13;;;;;;;11.10;9.98;;;23.40;93.70;;;;;;5005090;28;20100;-69
2023/09/18 01:25:43;;;;;;;10.10;9.10;;;23.40;92.20;;;;;;5012027;28;20116;-69
2023/09/18 01:28:09;;;;;;;9.48;8.38;;;23.20;93.70;;;;;;5028103;28;20489;-68
2023/09/18 01:30:35;;;;;;;9.70;8.80;;;23.10;92.30;;;;;;5031265;28;20045;-70
2023/09/18 01:33:01;;;;;;;12.25;9.48;;;23.30;93.50;;;;;;5021855;28;20087;-67
2023/09/18 01:35:29;;;;;;;9.98;8.93;;;23.20;93.80;;;;;;4989552;28;20499;-69
2023/09/18 01:37:59;;;;;;;9.35;8.45;;;23.40;92.50;;;;;;5004546;28;20116;-69
2023/09/18 01:40:25;;;;;;;9.60;8.60;;;23.30;92.60;;;;;;5008097;28;20063;-63
2023/09/18 01:42:52;;;;;;;10.02;9.05;;;23.20;92.40;;;;;;5002818;28;20120;-70
2023/09/18 01:45:18;;;;;;;9.23;8.27;;;23.20;92.50;;;;;;5027853;28;20104;-70
2023/09/18 01:47:44;;;;;;;9.95;8.70;;;23.20;92.40;;;;;;5013931;28;20372;-70
2023/09/18 01:50:10;;;;;;;10.00;8.60;;;23.40;92.50;;;;;;5023924;28;20049;-70
2023/09/18 01:52:36;;;;;;;9.85;8.82;;;23.40;92.40;;;;;;4999113;28;20403;-70
2023/09/18 01:55:07;;;;;;;10.93;9.55;;;23.00;93.70;;;;;;4972009;28;20055;-70
2023/09/18 01:57:33;;;;;;;10.65;9.57;;;23.30;92.20;;;;;;5013735;28;20055;-68
2023/09/18 01:59:59;;;;;;;10.48;9.38;;;23.20;92.30;;;;;;4983895;28;20046;-70
2023/09/18 02:02:25;;;;;;;10.32;9.05;;;23.20;92.40;;;;;;5026874;28;20038;-69
2023/09/18 02:04:52;;;;;;;9.65;8.55;;;;;;;;;;4996296;28;20057;-68
2023/09/18 02:07:18;;;;;;;9.25;8.35;;;;;;;;;;4997869;28;20141;-70
2023/09/18 02:09:44;;;;;;;9.40;8.48;;;22.90;91.40;;;;;;4981901;28;20507;-70
2023/09/18 02:12:11;;;;;;;10.13;8.35;;;23.10;92.30;;;;;;5029276;28;20038;-70
2023/09/18 02:14:38;;;;;;;9.10;8.10;;;23.30;93.50;;;;;;4997746;28;20053;-69
2023/09/18 02:17:05;;;;;;;9.88;8.88;;;23.10;92.30;;;;;;5010331;28;20479;-70
2023/09/18 02:19:31;;;;;;;9.10;8.20;;;23.20;92.10;;;;;;5047763;28;20056;-68
2023/09/18 02:21:57;;;;;;;8.98;8.02;;;23.10;92.30;;;;;;5033606;28;20037;-69
2023/09/18 02:24:23;;;;;;;10.10;8.40;;;23.30;93.60;;;;;;5032712;28;20087;-66
2023/09/18 02:26:49;;;;;;;10.07;9.00;;;23.30;92.40;;;;;;5032494;28;20108;-68
2023/09/18 02:29:15;;;;;;;10.55;8.80;;;;;;;;;;5050936;28;20478;-68
2023/09/18 02:31:42;;;;;;;10.20;8.32;;;23.20;93.20;;;;;;5051094;28;20036;-69
2023/09/18 02:34:08;;;;;;;10.65;7.50;;;23.10;92.20;;;;;;5032204;28;20045;-69
2023/09/18 02:36:34;;;;;;;9.27;8.38;;;23.30;92.30;;;;;;5031653;28;20041;-69
2023/09/18 02:39:00;;;;;;;9.65;8.05;;;23.60;92.40;;;;;;5051767;28;20394;-68
2023/09/18 02:41:26;;;;;;;9.02;8.00;;;23.00;92.10;;;;;;5049086;28;20045;-68
2023/09/18 02:43:52;;;;;;;8.98;8.07;;;23.10;92.30;;;;;;5008627;28;20029;-69
2023/09/18 02:46:18;;;;;;;8.63;7.50;;;22.90;93.70;;;;;;5051872;28;20409;-69
2023/09/18 02:48:44;;;;;;;8.80;7.65;;;;;;;;;;5049112;28;20062;-70
2023/09/18 02:51:10;;;;;;;9.52;8.52;;;23.00;91.30;;;;;;5043519;28;20441;-69
2023/09/18 02:53:36;;;;;;;10.10;8.68;;;23.10;92.20;;;;;;5022758;28;20041;-69
2023/09/18 02:56:02;;;;;;;9.50;8.45;;;23.30;92.20;;;;;;5050280;28;20045;-70
2023/09/18 02:58:30;;;;;;;10.20;8.38;;;23.10;92.30;;;;;;5051988;28;20048;-69
2023/09/18 03:00:59;;;;;;;10.57;7.90;;;22.70;93.60;;;;;;5006870;28;20083;-70
2023/09/18 03:03:26;;;;;;;8.20;7.40;;;23.20;93.80;;;;;;5028951;28;20029;-69
2023/09/18 03:05:52;;;;;;;9.20;8.20;;;23.10;93.70;;;;;;5018925;28;20107;-70
2023/09/18 03:08:18;;;;;;;9.70;8.70;;;;;;;;;;5049156;28;20049;-69
2023/09/18 03:10:44;;;;;;;9.98;8.20;;;22.90;91.30;;;;;;5021245;28;20044;-70
2023/09/18 03:13:11;;;;;;;9.32;7.53;;;;;;;;;;5000118;28;20489;-70
2023/09/18 03:15:37;;;;;;;8.80;7.70;;;;;;;;;;5035300;28;20057;-70
2023/09/18 03:18:04;;;;;;;9.65;7.53;;;23.00;91.30;;;;;;5023922;28;20072;-69
2023/09/18 03:20:30;;;;;;;9.13;7.57;;;23.10;92.20;;;;;;5019523;28;20063;-70
2023/09/18 03:22:58;;;;;;;8.68;7.78;;;23.30;92.40;;;;;;4985643;28;20049;-70
2023/09/18 03:25:24;;;;;;;8.52;7.28;;;23.10;92.30;;;;;;5019329;28;20099;-69
2023/09/18 03:27:52;;;;;;;8.32;7.50;;;23.10;93.40;;;;;;5002407;28;20114;-70
2023/09/18 03:30:18;;;;;;;8.07;7.28;;;23.20;92.30;;;;;;5004072;28;20061;-70
2023/09/18 03:32:45;;;;;;;8.85;7.00;;;22.90;92.10;;;;;;5011185;28;20116;-64
2023/09/18 03:35:17;;;;;;;9.07;7.63;;;23.00;93.40;;;;;;5027336;28;20044;-69
2023/09/18 03:37:51;;;;;;;8.07;7.10;;;23.00;92.10;;;;;;5000257;28;20542;-70
2023/09/18 03:40:17;;;;;;;10.30;7.60;;;23.00;92.40;;;;;;5001260;28;20045;-70
2023/09/18 03:42:43;;;;;;;9.35;8.35;;;23.20;92.30;;;;;;4992190;28;20379;-70
2023/09/18 03:45:10;;;;;;;9.00;7.72;;;22.90;92.30;;;;;;4999936;28;20490;-70
2023/09/18 03:47:36;;;;;;;8.43;7.53;;;23.00;93.40;;;;;;5019468;28;20041;-71
2023/09/18 03:50:03;;;;;;;9.35;7.47;;;23.10;93.60;;;;;;5046267;28;20120;-71
2023/09/18 03:52:29;;;;;;;8.48;7.35;;;23.00;92.20;;;;;;5019109;28;20041;-69
2023/09/18 03:54:55;;;;;;;9.75;7.32;;;22.90;92.10;;;;;;5032520;28;20387;-69
2023/09/18 03:57:21;;;;;;;8.75;7.72;;;;;;;;;;5035540;28;20118;-70
2023/09/18 03:59:47;;;;;;;8.63;7.65;;;23.20;93.50;;;;;;5016672;28;20160;-69
2023/09/18 04:02:13;;;;;;;8.75;7.38;;;;;;;;;;5050926;28;20470;-70
2023/09/18 04:04:39;;;;;;;9.32;8.43;;;23.10;93.30;;;;;;5051590;28;20045;-70
2023/09/18 04:07:06;;;;;;;9.38;7.80;;;22.80;92.20;;;;;;5002591;28;20106;-70
2023/09/18 04:09:32;;;;;;;8.82;7.93;;;23.10;92.20;;;;;;5027944;28;20116;-70
2023/09/18 04:11:58;;;;;;;11.52;8.73;;;23.20;93.70;;;;;;4996908;28;20443;-70
2023/09/18 04:14:24;;;;;;;10.68;8.07;;;23.10;92.30;;;;;;4997571;28;20058;-68
2023/09/18 04:16:56;;;;;;;9.27;7.88;;;23.20;92.50;;;;;;5042797;28;20442;-69
2023/09/18 04:19:22;;;;;;;9.88;8.07;;;;;;;;;;5033635;28;20037;-69
2023/09/18 04:21:49;;;;;;;9.23;8.18;;;23.10;91.40;;;;;;5052201;28;20045;-68
2023/09/18 04:24:15;;;;;;;9.35;8.30;;;23.20;92.40;;;;;;5020785;28;20033;-69
2023/09/18 04:26:41;;;;;;;9.70;8.05;;;23.10;93.30;;;;;;5004095;28;20572;-69
2023/09/18 04:29:07;;;;;;;10.15;7.53;;;23.00;93.40;;;;;;5035028;28;20045;-70
2023/09/18 04:31:33;;;;;;;9.35;7.90;;;;;;;;;;5027319;28;20041;-70
2023/09/18 04:33:59;;;;;;;9.07;7.40;;;22.90;93.60;;;;;;5016141;28;20037;-71
2023/09/18 04:36:25;;;;;;;9.93;8.10;;;22.90;93.30;;;;;;5048165;28;20041;-69
2023/09/18 04:38:52;;;;;;;9.70;7.30;;;23.50;92.80;;;;;;5006948;28;20092;-70
2023/09/18 04:41:18;;;;;;;9.15;8.02;;;;;;;;;;4983788;28;20041;-70
2023/09/18 04:43:44;;;;;;;9.20;7.65;;;23.00;91.50;;;;;;5021905;28;20045;-70
2023/09/18 04:46:10;;;;;;;10.27;7.65;;;23.00;93.60;;;;;;5030084;28;20386;-70
2023/09/18 04:48:35;;;;;;;11.95;8.05;;;23.00;92.30;;;;;;5023913;28;20041;-70
2023/09/18 04:51:03;;;;;;;9.73;7.90;;;;;;;;;;5038661;28;20040;-71
2023/09/18 04:53:29;;;;;;;11.32;7.88;;;;;;;;;;5024314;28;20093;-71
2023/09/18 04:55:55;;;;;;;8.95;7.53;;;23.00;93.50;;;;;;5013557;28;20814;-70
2023/09/18 04:58:21;;;;;;;9.52;7.75;;;22.80;93.40;;;;;;4977680;28;20128;-70
2023/09/18 05:00:54;;;;;;;9.82;7.35;;;22.80;93.40;;;;;;5003606;28;20180;-70
2023/09/18 05:03:21;;;;;;;7.97;6.82;;;;;;;;;;5034463;28;20113;-70
2023/09/18 05:05:47;;;;;;;8.75;7.32;;;22.90;91.50;;;;;;5018202;28;20045;-69
2023/09/18 05:08:13;;;;;;;11.05;7.97;;;23.20;92.40;;;;;;5002807;28;20040;-70
2023/09/18 05:10:39;;;;;;;9.90;7.75;;;23.30;92.50;;;;;;5016120;28;20048;-71
2023/09/18 05:13:05;;;;;;;8.52;7.20;;;23.00;92.40;;;;;;5030444;28;20095;-70
2023/09/18 05:15:30;;;;;;;9.38;7.55;;;22.90;93.90;;;;;;5027073;28;20076;-71
2023/09/18 05:17:57;;;;;;;9.50;7.75;;;22.80;92.00;;;;;;5030614;28;20122;-70
2023/09/18 05:20:28;;;;;;;7.95;6.68;;;22.80;92.30;;;;;;5015969;28;20494;-71
2023/09/18 05:22:54;;;;;;;8.68;7.00;;;23.00;92.90;;;;;;4983315;28;20044;-69
2023/09/18 05:25:33;;;;;;;11.80;7.25;;;22.80;93.50;;;;;;5038657;28;20506;-69
2023/09/18 05:28:00;;;;;;;8.90;6.70;;;23.10;93.90;;;;;;4996522;28;20083;-70
2023/09/18 05:30:34;;;;;;;8.15;7.28;;;22.80;93.70;;;;;;5017400;28;20045;-71
2023/09/18 05:33:04;;;;;;;10.02;7.30;;;22.80;93.50;;;;;;5026293;28;20049;-69
2023/09/18 05:35:31;;;;;;;8.77;7.10;;;22.90;93.50;;;;;;5045035;28;20044;-67
2023/09/18 05:37:58;;;;;;;8.88;7.05;;;;;;;;;;5027478;28;20094;-69
2023/09/18 05:40:27;;;;;;;8.70;6.80;;;23.30;94.00;;;;;;5022094;28;20142;-70
2023/09/18 05:42:54;;;;;;;10.23;7.25;;;22.90;93.60;;;;;;5039962;28;20505;-70
2023/09/18 05:45:20;;;;;;;8.30;7.20;;;22.80;92.60;;;;;;5051384;28;20049;-70
2023/09/18 05:47:46;;;;;;;9.13;6.95;;;22.90;94.00;;;;;;5033560;28;20124;-71
2023/09/18 05:53:53;;;;;;;9.50;7.00;;;23.00;93.70;;;;;;5034901;28;20108;-69
2023/09/18 05:56:19;;;;;;;8.48;6.60;;;23.00;93.90;;;;;;5034695;28;20044;-70
2023/09/18 05:58:45;;;;;;;10.25;7.10;;;;;;;;;;5037217;28;20150;-70
2023/09/18 06:01:11;;;;;;;8.75;6.30;;;;;;;;;;5033136;28;20127;-68
2023/09/18 06:03:37;;;;;;;7.53;5.85;;;;;;;;;;5032646;28;20044;-70
2023/09/18 06:06:04;;;;;;;7.07;5.75;;;23.10;91.80;;;;;;5048900;28;20092;-70
2023/09/18 06:08:33;;;;;;;6.55;5.60;;;;;;;;;;5045431;28;20041;-70
2023/09/18 06:10:59;;;;;;;8.77;6.20;;;;;;;;;;5050236;28;20048;-70
2023/09/18 06:13:26;;;;;;;10.30;6.38;;;23.10;91.80;;;;;;5032031;28;20124;-70
2023/09/18 06:15:54;;;;;;;7.70;5.40;;;23.20;93.70;;;;;;5052330;28;20053;-70
2023/09/18 06:18:20;;;;;;;7.38;5.47;;;;;;;;;;5030267;28;20302;-70
2023/09/18 06:20:47;;;;;;;8.07;5.60;;;;;;;;;;5048902;28;20164;-68
2023/09/18 06:23:13;;;;;;;8.02;5.00;;;23.00;93.50;;;;;;5046714;28;20041;-69
2023/09/18 06:25:41;;;;;;;6.75;4.78;;;22.80;93.90;;;;;;5034824;28;20487;-67
2023/09/18 06:28:07;;;;;;;7.28;4.70;;;23.00;93.50;;;;;;5043517;28;20510;-68
2023/09/18 06:30:36;;;;;;;7.57;5.13;;;23.10;93.70;;;;;;5049608;28;20123;-69
2023/09/18 06:33:03;;;;;;;6.50;4.95;;;23.00;93.70;;;;;;5048854;28;20045;-69
2023/09/18 06:35:30;;;;;;;8.18;5.18;;;;;;;;;;5051974;28;20494;-70
2023/09/18 06:37:58;;;;;;;8.15;5.50;;;23.20;93.50;;;;;;5049061;28;20074;-69
2023/09/18 06:40:25;;;;;;;6.40;4.90;;;23.10;93.70;;;;;;5024779;28;20049;-71
2023/09/18 06:42:54;;;;;;;6.32;4.82;;;;;;;;;;5020664;28;20041;-68
2023/09/18 06:45:20;;;;;;;6.80;4.90;;;23.10;93.50;;;;;;5055263;28;20112;-70
2023/09/18 06:47:46;;;;;;;7.25;4.80;;;23.00;92.40;;;;;;5046673;28;20081;-74
2023/09/18 06:50:13;;;;;;;7.43;5.30;;;;;;;;;;5019509;28;20037;-76
2023/09/18 06:52:38;;;;;;;7.18;5.30;;;23.10;91.60;;;;;;5054509;28;20406;-76
2023/09/18 06:55:05;;;;;;;8.77;5.15;;;23.20;92.50;;;;;;5049838;28;20497;-62
2023/09/18 06:57:31;;;;;;;8.32;5.50;;;23.40;92.50;;;;;;5017304;28;20065;-62
2023/09/18 06:59:56;;;;;;;7.50;5.07;;;23.10;92.40;;;;;;5025396;28;20054;-75
2023/09/18 07:02:22;;;;;;;8.93;4.75;;;23.00;92.40;;;;;;5033880;28;20041;-74
2023/09/18 07:04:48;;;;;;;7.53;5.10;;;23.10;92.50;;;;;;5023851;28;20114;-75
2023/09/18 07:07:14;;;;;;;7.38;5.03;;;23.30;92.80;;;;;;5054713;28;20160;-76
2023/09/18 07:09:41;;;;;;;7.60;5.13;;;23.10;92.40;;;;;;5054718;28;20422;-75
2023/09/18 07:12:09;;;;;;;8.73;5.70;;;23.20;92.60;;;;;;5017539;28;20053;-73
2023/09/18 07:14:35;;;;;;;7.82;5.65;;;23.40;92.70;;;;;;5020326;28;20449;-76
2023/09/18 07:17:02;;;;;;;7.63;5.78;;;23.10;92.70;;;;;;5035430;28;20044;-76
2023/09/18 07:19:28;;;;;;;8.02;5.70;;;23.10;93.90;;;;;;5050712;28;20044;-74
2023/09/18 07:21:54;;;;;;;9.13;5.82;;;;;;;;;;5051071;28;20048;-74
2023/09/18 07:24:20;;;;;;;10.60;6.10;;;23.20;92.00;;;;;;5049247;28;20067;-75
2023/09/18 07:26:48;;;;;;;8.40;5.60;;;23.20;92.90;;;;;;5007596;28;20045;-75
2023/09/18 07:29:15;;;;;;;9.95;6.00;;;23.10;92.90;;;;;;5021039;28;20041;-75
2023/09/18 07:31:42;;;;;;;11.05;5.47;;;23.10;94.40;;;;;;4998628;28;20060;-74
2023/09/18 07:34:08;;;;;;;9.70;5.68;;;23.10;93.20;;;;;;5020595;28;20044;-64
2023/09/18 07:36:34;;;;;;;9.48;5.65;;;23.10;94.20;;;;;;5013966;28;20510;-65
2023/09/18 07:39:00;;;;;;;8.13;5.00;;;23.10;94.60;;;;;;5033934;28;20131;-61
2023/09/18 07:41:26;;;;;;;8.30;5.47;;;23.20;93.10;;;;;;5053477;28;20045;-74
2023/09/18 07:43:57;;;;;;;7.13;5.53;;;23.30;93.40;;;;;;5002766;28;20123;-75
2023/09/18 07:46:23;;;;;;;9.95;5.05;;;23.10;93.30;;;;;;5001572;28;20063;-74
2023/09/18 07:48:49;;;;;;;7.38;5.00;;;23.60;93.50;;;;;;5007511;28;20360;-75
2023/09/18 07:51:16;;;;;;;11.82;5.80;;;23.20;93.40;;;;;;5019530;28;20124;-73
2023/09/18 07:53:42;;;;;;;9.88;5.72;;;;;;;;;;5036811;28;20043;-76
2023/09/18 07:56:08;;;;;;;8.80;5.65;;;23.10;92.50;;;;;;5054094;28;20064;-73
2023/09/18 07:58:38;;;;;;;8.02;5.13;;;;;;;;;;4998012;28;20102;-77
2023/09/18 08:01:10;;;;;;;9.52;5.60;;;23.10;92.60;;;;;;5053737;28;20483;-77
2023/09/18 08:03:36;;;;;;;10.25;5.57;;;23.40;93.60;;;;;;5054451;28;20410;-76
2023/09/18 08:06:04;;;;;;;9.40;5.60;;;23.10;93.30;;;;;;5036513;28;20131;-75
2023/09/18 08:08:32;;;;;;;10.05;5.45;;;23.20;93.60;;;;;;5033837;28;20049;-61
2023/09/18 08:10:58;;;;;;;9.65;5.32;;;23.10;94.80;;;;;;5035723;28;20090;-77
2023/09/18 08:13:24;;;;;;;8.43;5.63;;;23.40;93.40;;;;;;5036327;28;20422;-76
2023/09/18 08:15:50;;;;;;;9.82;5.63;;;23.40;93.30;;;;;;5035044;28;20045;-76
2023/09/18 08:18:17;;;;;;;8.95;5.20;;;23.30;94.70;;;;;;5051268;28;20037;-76
2023/09/18 08:20:43;;;;;;;8.68;6.00;;;24.40;93.70;;;;;;5008630;28;20418;-76
2023/09/18 08:23:12;;;;;;;9.18;5.97;;;23.50;93.60;;;;;;5000312;28;20156;-75
2023/09/18 08:25:40;;;;;;;9.20;5.80;;;;;;;;;;5016677;28;20056;-75
2023/09/18 08:28:06;;;;;;;8.98;5.72;;;23.00;92.30;;;;;;5038273;28;20040;-75
2023/09/18 08:30:32;;;;;;;9.02;5.40;;;;;;;;;;5017513;28;20052;-74
2023/09/18 08:33:00;;;;;;;11.90;6.28;;;23.50;93.10;;;;;;5053498;28;20049;-76
2023/09/18 08:35:29;;;;;;;9.07;6.20;;;;;;;;;;5052102;28;20045;-64
2023/09/18 08:37:56;;;;;;;8.02;5.78;;;23.70;92.50;;;;;;5035293;28;20681;-75
2023/09/18 08:40:22;;;;;;;9.20;5.70;;;23.50;93.20;;;;;;5018004;28;20367;-74
2023/09/18 08:42:48;;;;;;;8.73;5.47;;;23.40;93.20;;;;;;5035012;28;20033;-74
2023/09/18 08:45:27;;;;;;;9.18;5.85;;;23.70;93.30;;;;;;5034639;28;20391;-75
2023/09/18 08:47:53;;;;;;;9.60;5.45;;;23.70;92.80;;;;;;5018683;28;20037;-76
2023/09/18 08:50:19;;;;;;;7.97;5.70;;;23.70;93.30;;;;;;5033835;28;20080;-74
2023/09/18 08:52:45;;;;;;;8.05;5.25;;;;;;;;;;5052559;28;20099;-74
2023/09/18 08:55:13;;;;;;;7.47;5.15;;;;;;;;;;5032894;28;20102;-76
2023/09/18 08:57:39;;;;;;;8.40;5.43;;;;;;;;;;5031871;28;20132;-75
2023/09/18 09:00:16;;;;;;;8.30;5.05;;;23.60;94.60;;;;;;5034749;28;20086;-76
2023/09/18 09:02:44;;;;;;;9.40;5.75;;;23.60;93.20;;;;;;5052809;28;20495;-76
2023/09/18 09:05:10;;;;;;;9.43;5.50;;;23.30;93.40;;;;;;5051795;28;20045;-75
2023/09/18 09:07:36;;;;;;;9.25;5.47;;;;;;;;;;5017736;28;20076;-63
2023/09/18 09:10:03;;;;;;;7.00;4.68;;;23.40;92.40;;;;;;5000831;28;20068;-62
2023/09/18 09:12:50;;;;;;;8.05;4.93;;;23.50;93.30;;;;;;5001883;28;20057;-75
2023/09/18 09:15:23;;;;;;;7.65;5.07;;;23.40;93.00;;;;;;5032807;28;20397;-77
2023/09/18 09:17:51;;;;;;;6.65;4.97;;;23.40;93.50;;;;;;5017126;28;20209;-64
2023/09/18 09:20:18;;;;;;;7.47;4.82;;;23.40;94.80;;;;;;5017177;28;20040;-70
2023/09/18 09:22:44;;;;;;;7.63;5.22;;;23.30;95.00;;;;;;5033916;28;20136;-68
2023/09/18 09:25:37;;;;;;;7.40;4.70;;;23.40;95.00;;;;;;4996687;28;20064;-71
2023/09/18 09:28:07;;;;;;;8.27;4.68;;;23.50;93.60;;;;;;5003583;28;20414;-73
2023/09/18 09:30:35;;;;;;;6.63;4.60;;;23.30;95.10;;;;;;5033132;28;20235;-74
2023/09/18 09:33:04;;;;;;;9.00;5.63;;;23.50;94.10;;;;;;5034411;28;20117;-74
2023/09/18 09:35:35;;;;;;;12.73;5.13;;;23.30;93.40;;;;;;5024773;28;20045;-72
2023/09/18 09:38:09;;;;;;;8.98;4.97;;;23.50;93.70;;;;;;5000654;28;20045;-77
2023/09/18 09:40:35;;;;;;;9.90;5.20;;;;;;;;;;5039398;28;20049;-77
2023/09/18 09:43:01;;;;;;;6.85;4.30;;;23.40;92.80;;;;;;5015397;28;20060;-70
2023/09/18 09:45:35;;;;;;;8.05;4.60;;;23.40;93.60;;;;;;5009861;28;20480;-76
2023/09/18 09:48:04;;;;;;;9.25;4.78;;;23.20;93.80;;;;;;5050160;28;20041;-75
2023/09/18 09:50:32;;;;;;;8.57;4.78;;;23.40;93.70;;;;;;5051313;28;20041;-79
2023/09/18 09:52:57;;;;;;;10.13;5.35;;;23.20;95.30;;;;;;5034634;28;20052;-78
2023/09/18 09:55:28;;;;;;;8.05;5.07;;;23.30;93.70;;;;;;5046623;28;20044;-76
2023/09/18 09:57:57;;;;;;;7.78;5.30;;;23.40;95.30;;;;;;5049199;28;20080;-77
2023/09/18 10:00:31;;;;;;;7.43;4.80;;;23.70;93.90;;;;;;5050500;28;20402;-78
2023/09/18 10:02:59;;;;;;;8.20;5.35;;;23.40;93.90;;;;;;5020608;28;20041;-77
2023/09/18 10:05:29;;;;;;;9.10;4.90;;;23.60;94.00;;;;;;5050988;28;20128;-76
2023/09/18 10:07:58;;;;;;;9.73;5.38;;;23.30;93.90;;;;;;5032623;28;20033;-72
2023/09/18 10:10:35;;;;;;;7.90;5.07;;;23.70;94.10;;;;;;5014632;28;20049;-76
2023/09/18 10:13:05;;;;;;;8.65;5.38;;;23.70;95.30;;;;;;5034878;28;20063;-78
2023/09/18 10:15:33;;;;;;;7.85;5.40;;;23.40;93.90;;;;;;5053163;28;20041;-78
2023/09/18 10:17:59;;;;;;;7.07;5.40;;;23.50;93.90;;;;;;5057531;28;20048;-78
2023/09/18 10:20:26;;;;;;;8.52;5.63;;;23.70;93.90;;;;;;5052492;28;20449;-77
2023/09/18 10:22:56;;;;;;;10.20;5.95;;;23.50;93.70;;;;;;5041031;28;20048;-76
2023/09/18 10:25:28;;;;;;;7.45;5.63;;;23.40;95.20;;;;;;5021665;28;20379;-72
2023/09/18 10:27:58;;;;;;;10.10;5.78;;;23.60;94.10;;;;;;5039697;28;20048;-76
2023/09/18 10:30:25;;;;;;;8.02;5.72;;;23.70;95.60;;;;;;5041691;28;20055;-76
2023/09/18 10:32:51;;;;;;;10.05;6.00;;;23.60;94.20;;;;;;5040567;28;20088;-73
2023/09/18 10:35:18;;;;;;;8.57;6.53;;;23.50;94.10;;;;;;5039965;28;20053;-77
2023/09/18 10:37:45;;;;;;;9.77;5.70;;;23.90;94.30;;;;;;5038402;28;20063;-77
2023/09/18 10:40:12;;;;;;;9.18;6.03;;;23.50;94.10;;;;;;5024259;28;20155;-76
2023/09/18 10:42:40;;;;;;;8.48;5.70;;;24.00;94.50;;;;;;5058211;28;20093;-78
2023/09/18 10:45:10;;;;;;;9.57;6.65;;;23.90;94.10;;;;;;5022795;28;20060;-72
2023/09/18 10:47:38;;;;;;;11.20;6.80;;;23.70;94.10;;;;;;5008296;28;20057;-75
2023/09/18 10:50:07;;;;;;;10.40;6.82;;;24.00;94.60;;;;;;5024271;28;20049;-75
2023/09/18 10:52:34;;;;;;;8.85;5.95;;;23.60;94.30;;;;;;5040900;28;20064;-77
2023/09/18 10:55:02;;;;;;;10.52;6.70;;;23.90;94.70;;;;;;5040346;28;20494;-75
2023/09/18 10:57:28;;;;;;;8.48;6.97;;;24.00;94.60;;;;;;5024604;28;20076;-77
2023/09/18 10:59:54;;;;;;;8.57;6.55;;;24.10;96.00;;;;;;5058688;28;20073;-77
2023/09/18 11:02:24;;;;;;;11.43;7.43;;;23.90;95.10;;;;;;5058733;28;20119;-74
2023/09/18 11:04:52;;;;;;;9.02;7.82;;;23.70;94.30;;;;;;5040989;28;20128;-78
2023/09/18 11:07:22;;;;;;;10.10;7.45;;;23.80;94.50;;;;;;5021321;28;20500;-77
2023/09/18 11:09:48;;;;;;;10.23;8.38;;;23.80;94.90;;;;;;5018389;28;20102;-79
2023/09/18 11:12:16;;;;;;;11.40;9.10;;;24.20;94.50;;;;;;5021407;28;20053;-62
2023/09/18 11:14:43;;;;;;;13.20;9.15;;;24.50;94.70;;;;;;5007377;28;20057;-78
2023/09/18 11:17:29;;;;;;;10.15;8.75;;;23.90;94.40;;;;;;5052687;28;20045;-71
2023/09/18 11:20:17;;;;;;;9.95;8.65;;;24.20;94.40;;;;;;5020354;28;20045;-78
2023/09/18 11:22:54;;;;;;;10.95;8.45;;;24.30;94.20;;;;;;5032390;28;20158;-78
2023/09/18 11:25:37;;;;;;;11.43;7.95;;;24.30;94.80;;;;;;5021261;28;20167;-77
2023/09/18 11:28:07;;;;;;;10.80;7.38;;;24.30;95.90;;;;;;5035875;28;20490;-78
2023/09/18 11:30:36;;;;;;;8.70;7.28;;;24.50;94.60;;;;;;5004415;28;20047;-78
2023/09/18 11:33:06;;;;;;;10.50;7.50;;;24.50;94.00;;;;;;4995004;28;20060;-75
2023/09/18 11:35:35;;;;;;;8.82;6.65;;;24.70;94.80;;;;;;5052445;28;20032;-77
2023/09/18 11:38:09;;;;;;;8.18;6.63;;;24.60;94.80;;;;;;5036162;28;20053;-62
2023/09/18 11:40:40;;;;;;;8.75;6.50;;;24.30;94.80;;;;;;5053660;28;20052;-77
2023/09/18 11:43:35;;;;;;;7.15;5.80;;;24.50;94.70;;;;;;5011867;28;20470;-76
2023/09/18 11:46:04;;;;;;;9.32;6.50;;;24.60;94.90;;;;;;5001947;28;20095;-77
2023/09/18 11:48:32;;;;;;;9.25;6.28;;;24.60;94.20;;;;;;5052905;28;20132;-78
2023/09/18 11:50:59;;;;;;;8.45;5.78;;;24.80;94.80;;;;;;5035695;28;20102;-77
2023/09/18 11:53:26;;;;;;;8.25;5.18;;;24.50;94.50;;;;;;5053644;28;20037;-78
2023/09/18 11:55:52;;;;;;;7.25;5.28;;;24.40;94.50;;;;;;5034243;28;20490;-64
2023/09/18 11:58:22;;;;;;;7.15;5.22;;;24.60;94.30;;;;;;5054009;28;20048;-77
2023/09/18 12:00:50;;;;;;;9.82;5.40;;;24.50;94.40;;;;;;5051780;28;20053;-77
2023/09/18 12:03:25;;;;;;;7.95;4.85;;;24.50;94.40;;;;;;5034833;28;20044;-77
2023/09/18 12:05:54;;;;;;;24.73;6.78;;;24.70;95.60;;;;;;5033088;28;20431;-77
2023/09/18 12:08:20;;;;;;;16.52;6.65;;;24.60;94.30;;;;;;5019827;28;20056;-78
2023/09/18 12:10:49;;;;;;;12.32;5.68;;;24.60;94.10;;;;;;5003418;28;20045;-78
2023/09/18 12:13:15;;;;;;;12.75;5.65;;;24.60;94.20;;;;;;5032025;28;20061;-77
2023/09/18 12:15:41;;;;;;;12.15;5.05;;;24.80;95.70;;;;;;5019928;28;20128;-75
2023/09/18 12:18:14;;;;;;;12.32;5.43;;;24.80;94.20;;;;;;5054386;28;20395;-77
2023/09/18 12:20:49;;;;;;;9.98;5.00;;;24.90;94.50;;;;;;5003647;28;20048;-77
2023/09/18 12:23:16;;;;;;;10.38;4.90;;;24.80;94.30;;;;;;5016364;28;20056;-77
2023/09/18 12:25:44;;;;;;;14.30;5.03;;;24.80;94.10;;;;;;5033574;28;20120;-74
2023/09/18 12:28:10;;;;;;;10.38;4.40;;;;;;;;;;5035601;28;20048;-77
2023/09/18 12:30:36;;;;;;;13.38;5.72;;;24.70;93.10;;;;;;5036060;28;20051;-77
2023/09/18 12:33:05;;;;;;;16.35;4.72;;;24.90;93.90;;;;;;5053386;28;20037;-77
2023/09/18 12:35:31;;;;;;;11.88;4.68;;;24.80;93.60;;;;;;5053559;28;20037;-76
2023/09/18 12:37:59;;;;;;;14.73;5.20;;;24.60;94.00;;;;;;5018751;28;20056;-77
2023/09/18 12:40:30;;;;;;;13.82;4.70;;;25.00;94.10;;;;;;5036359;28;20045;-78
2023/09/18 12:42:59;;;;;;;15.18;7.43;;;24.80;94.00;;;;;;5035648;28;20088;-78
2023/09/18 12:45:25;;;;;;;16.38;7.15;;;24.30;95.60;;;;;;5019552;28;20064;-79
2023/09/18 12:47:52;;;;;;;16.45;7.63;;;24.70;94.30;;;;;;5014797;28;20084;-62
2023/09/18 12:50:20;;;;;;;15.63;5.93;;;24.40;94.40;;;;;;4988705;28;20132;-79
2023/09/18 12:52:46;;;;;;;17.42;6.78;;;24.50;94.90;;;;;;5017732;28;20040;-78
2023/09/18 12:55:25;;;;;;;13.10;5.75;;;24.30;94.90;;;;;;5053073;28;20045;-79
2023/09/18 12:57:52;;;;;;;10.18;5.15;;;24.00;95.20;;;;;;5052252;28;20091;-79
2023/09/18 13:00:22;;;;;;;11.15;5.82;;;25.20;95.50;;;;;;5002493;28;20052;-79
2023/09/18 13:02:54;;;;;;;7.38;4.60;;;23.90;97.50;;;;;;5017945;28;20041;-78
2023/09/18 13:05:24;;;;;;;8.45;4.82;;;23.80;97.50;;;;;;5034263;28;20045;-74
2023/09/18 13:07:51;;;;;;;9.27;5.22;;;;;;;;;;5003772;28;20067;-74
2023/09/18 13:10:17;;;;;;;9.95;5.68;;;23.80;95.30;;;;;;5035413;28;20410;-78
2023/09/18 13:12:46;;;;;;;7.63;5.30;;;24.60;96.70;;;;;;5001118;28;20041;-79
2023/09/18 13:15:13;;;;;;;10.27;5.25;;;23.90;98.10;;;;;;5017998;28;20045;-79
2023/09/18 13:17:44;;;;;;;8.50;6.00;;;24.00;98.30;;;;;;5014186;28;20411;-77
2023/09/18 13:20:20;;;;;;;14.73;5.70;;;24.10;97.10;;;;;;5030157;28;20454;-77
2023/09/18 13:22:49;;;;;;;10.32;5.30;;;24.20;97.20;;;;;;5015014;28;20050;-78